createdAt,value
2023-03-27T00:01:02.273Z,1
2023-03-27T00:02:12.018Z,0.9
2023-03-27T00:03:19.688Z,0.9
2023-03-27T00:04:28.252Z,0.9
2023-03-27T00:05:36.933Z,0.7
2023-03-27T00:06:45.573Z,0.9
2023-03-27T00:07:55.251Z,0.9
2023-03-27T00:09:04.909Z,0.8
2023-03-27T00:10:14.556Z,0.9
2023-03-27T00:11:22.267Z,1.1
2023-03-27T00:12:29.913Z,0.9
2023-03-27T00:13:42.637Z,1
2023-03-27T00:14:50.249Z,0.8
2023-03-27T00:15:58.882Z,0.7
2023-03-27T00:17:07.563Z,0.8
2023-03-27T00:18:16.211Z,0.8
2023-03-27T00:19:23.866Z,0.8
2023-03-27T00:20:33.521Z,0.8
2023-03-27T00:21:42.266Z,0.7
2023-03-27T00:22:49.887Z,0.5
2023-03-27T00:23:59.545Z,1.1
2023-03-27T00:25:09.203Z,0.8
2023-03-27T00:26:18.905Z,0.6
2023-03-27T00:27:27.599Z,0.7
2023-03-27T00:28:35.293Z,0.6
2023-03-27T00:29:44.931Z,0.8
2023-03-27T00:30:54.806Z,1.9
2023-03-27T00:32:02.281Z,0.4
2023-03-27T00:33:11.964Z,0.4
2023-03-27T00:34:21.613Z,1.4
2023-03-27T00:35:31.414Z,1.1
2023-03-27T00:36:40.081Z,0.3
2023-03-27T00:37:47.751Z,1.1
2023-03-27T00:38:57.385Z,0.3
2023-03-27T00:40:06.058Z,0.3
2023-03-27T00:41:14.730Z,0.5
2023-03-27T00:42:24.403Z,0.3
2023-03-27T00:43:34.112Z,0.4
2023-03-27T00:44:42.720Z,0.3
2023-03-27T00:45:51.398Z,0.3
2023-03-27T00:47:01.103Z,0.4
2023-03-27T00:48:10.808Z,0.3
2023-03-27T00:49:19.475Z,0.5
2023-03-27T00:50:29.165Z,0.4
2023-03-27T00:51:38.836Z,0.4
2023-03-27T00:52:48.520Z,0.4
2023-03-27T00:53:57.205Z,1.5
2023-03-27T00:55:05.820Z,1.1
2023-03-27T00:56:14.490Z,0.2
2023-03-27T00:57:24.180Z,0.3
2023-03-27T00:58:33.828Z,0.3
2023-03-27T00:59:41.475Z,0.3
2023-03-27T01:00:51.145Z,0.4
2023-03-27T01:01:59.794Z,0.4
2023-03-27T01:03:08.545Z,0.3
2023-03-27T01:04:18.133Z,0.2
2023-03-27T01:05:26.776Z,0.2
2023-03-27T01:06:36.456Z,1.6
2023-03-27T01:08:00.162Z,0.3
2023-03-27T01:08:55.770Z,0.2
2023-03-27T01:10:05.438Z,0.3
2023-03-27T01:11:14.085Z,0.4
2023-03-27T01:12:23.781Z,0.9
2023-03-27T01:13:33.427Z,0.2
2023-03-27T01:14:44.109Z,0.9
2023-03-27T01:15:53.834Z,0.3
2023-03-27T01:17:02.425Z,0.2
2023-03-27T01:18:11.103Z,0.3
2023-03-27T01:19:20.754Z,0.3
2023-03-27T01:20:30.428Z,1.2
2023-03-27T01:21:40.074Z,0.3
2023-03-27T01:22:48.747Z,0.3
2023-03-27T01:23:58.777Z,0.3
2023-03-27T01:25:08.076Z,0.2
2023-03-27T01:26:17.694Z,0.3
2023-03-27T01:27:28.383Z,0.3
2023-03-27T01:28:38.064Z,0.3
2023-03-27T01:29:46.757Z,0.4
2023-03-27T01:30:55.645Z,0.4
2023-03-27T01:32:05.084Z,0.3
2023-03-27T01:33:14.774Z,0.4
2023-03-27T01:34:24.428Z,0.3
2023-03-27T01:35:33.135Z,1.3
2023-03-27T01:36:42.763Z,2.2
2023-03-27T01:37:52.480Z,2.2
2023-03-27T01:39:02.119Z,1.9
2023-03-27T01:40:10.767Z,2.2
2023-03-27T01:41:19.445Z,2.2
2023-03-27T01:42:29.079Z,2
2023-03-27T01:43:38.745Z,2.3
2023-03-27T01:44:47.426Z,2.5
2023-03-27T01:45:55.069Z,2.7
2023-03-27T01:47:04.769Z,2.6
2023-03-27T01:48:14.419Z,3
2023-03-27T01:49:23.059Z,3.1
2023-03-27T01:50:31.734Z,2.6
2023-03-27T01:51:41.376Z,2.2
2023-03-27T01:52:51.060Z,2.3
2023-03-27T01:54:00.741Z,1.9
2023-03-27T01:55:08.430Z,1.4
2023-03-27T01:56:18.064Z,1.2
2023-03-27T01:57:26.760Z,0.9
2023-03-27T01:58:36.413Z,0.7
2023-03-27T01:59:45.062Z,0.8
2023-03-27T02:00:54.708Z,0.8
2023-03-27T02:02:04.399Z,1.5
2023-03-27T02:03:14.057Z,1.5
2023-03-27T02:04:22.769Z,1.5
2023-03-27T02:05:32.501Z,1
2023-03-27T02:06:41.191Z,0.7
2023-03-27T02:07:49.837Z,0.9
2023-03-27T02:08:58.513Z,0.9
2023-03-27T02:10:07.164Z,0.7
2023-03-27T02:11:16.822Z,0.9
2023-03-27T02:12:25.481Z,1
2023-03-27T02:13:33.212Z,0.9
2023-03-27T02:14:42.839Z,0.8
2023-03-27T02:15:51.499Z,1.3
2023-03-27T02:17:00.178Z,0.9
2023-03-27T02:18:09.856Z,1.2
2023-03-27T02:19:18.512Z,0.9
2023-03-27T02:20:26.178Z,0.8
2023-03-27T02:21:35.824Z,1.6
2023-03-27T02:22:44.532Z,1.7
2023-03-27T02:23:53.292Z,1.5
2023-03-27T02:25:01.910Z,1.8
2023-03-27T02:26:10.601Z,1.8
2023-03-27T02:27:20.292Z,1.6
2023-03-27T02:28:28.980Z,1.9
2023-03-27T02:29:38.688Z,1.6
2023-03-27T02:30:48.573Z,2
2023-03-27T02:31:57.986Z,1.8
2023-03-27T02:33:07.646Z,1.4
2023-03-27T02:34:17.313Z,1.8
2023-03-27T02:35:26.029Z,1.6
2023-03-27T02:36:34.631Z,1.5
2023-03-27T02:37:43.279Z,1.3
2023-03-27T02:38:51.973Z,1.3
2023-03-27T02:40:01.623Z,1.6
2023-03-27T02:41:10.299Z,1.3
2023-03-27T02:42:17.949Z,1.5
2023-03-27T02:43:26.657Z,1.6
2023-03-27T02:44:35.348Z,1.4
2023-03-27T02:45:46.042Z,1.5
2023-03-27T02:46:55.680Z,1.5
2023-03-27T02:48:03.426Z,1.5
2023-03-27T02:49:13.139Z,1.3
2023-03-27T02:50:22.764Z,1.6
2023-03-27T02:51:32.426Z,1.6
2023-03-27T02:52:41.094Z,1.7
2023-03-27T02:53:48.746Z,1.7
2023-03-27T02:54:58.448Z,1.4
2023-03-27T02:56:07.100Z,1.4
2023-03-27T02:57:16.779Z,1.6
2023-03-27T02:58:26.417Z,1.4
2023-03-27T02:59:35.142Z,1.6
2023-03-27T03:00:44.852Z,1.9
2023-03-27T03:01:52.572Z,1.7
2023-03-27T03:03:01.196Z,1.5
2023-03-27T03:04:10.842Z,1.9
2023-03-27T03:05:19.483Z,1.5
2023-03-27T03:06:27.144Z,1.4
2023-03-27T03:07:36.817Z,1.8
2023-03-27T03:08:45.478Z,1.5
2023-03-27T03:09:54.179Z,1.6
2023-03-27T03:11:03.841Z,1.5
2023-03-27T03:12:12.509Z,1.5
2023-03-27T03:13:22.188Z,1.4
2023-03-27T03:14:31.866Z,1.7
2023-03-27T03:15:41.525Z,1.7
2023-03-27T03:16:51.229Z,1.6
2023-03-27T03:17:59.922Z,1.6
2023-03-27T03:19:08.521Z,1.4
2023-03-27T03:20:17.235Z,1.5
2023-03-27T03:21:25.883Z,2.2
2023-03-27T03:22:35.587Z,1.8
2023-03-27T03:23:57.640Z,2
2023-03-27T03:24:53.884Z,2.1
2023-03-27T03:26:03.533Z,2.2
2023-03-27T03:27:13.189Z,2.1
2023-03-27T03:28:21.835Z,2.1
2023-03-27T03:29:30.518Z,2.2
2023-03-27T03:30:40.210Z,2.2
2023-03-27T03:31:49.846Z,2.2
2023-03-27T03:32:58.506Z,2.1
2023-03-27T03:34:07.179Z,2
2023-03-27T03:35:16.822Z,2
2023-03-27T03:36:25.451Z,2.1
2023-03-27T03:37:33.089Z,1.6
2023-03-27T03:38:41.754Z,1
2023-03-27T03:39:49.489Z,2.3
2023-03-27T03:40:59.369Z,2.3
2023-03-27T03:42:08.777Z,0.7
2023-03-27T03:43:18.430Z,0.7
2023-03-27T03:44:28.132Z,0.8
2023-03-27T03:45:36.770Z,0.7
2023-03-27T03:46:45.439Z,0.7
2023-03-27T03:47:55.090Z,0.7
2023-03-27T03:49:03.733Z,2.4
2023-03-27T03:50:13.453Z,2.5
2023-03-27T03:51:23.064Z,0.8
2023-03-27T03:52:31.710Z,0.8
2023-03-27T03:53:41.385Z,1.1
2023-03-27T03:54:51.068Z,0.6
2023-03-27T03:55:59.778Z,0.8
2023-03-27T03:57:09.516Z,0.8
2023-03-27T03:58:18.080Z,0.6
2023-03-27T03:59:27.760Z,0.6
2023-03-27T04:00:36.433Z,0.6
2023-03-27T04:01:46.166Z,0.8
2023-03-27T04:02:55.907Z,0.5
2023-03-27T04:04:04.510Z,0.7
2023-03-27T04:05:14.190Z,0.7
2023-03-27T04:06:23.867Z,0.5
2023-03-27T04:07:32.532Z,0.6
2023-03-27T04:08:42.221Z,0.5
2023-03-27T04:09:50.919Z,0.5
2023-03-27T04:10:58.715Z,0.6
2023-03-27T04:12:07.212Z,0.5
2023-03-27T04:13:16.912Z,0.5
2023-03-27T04:14:24.589Z,0.6
2023-03-27T04:15:34.683Z,0.9
2023-03-27T04:16:43.379Z,0.7
2023-03-27T04:17:53.063Z,0.6
2023-03-27T04:19:01.683Z,0.6
2023-03-27T04:20:11.408Z,0.7
2023-03-27T04:21:20.113Z,0.6
2023-03-27T04:22:27.805Z,0.6
2023-03-27T04:23:37.443Z,0.8
2023-03-27T04:24:47.103Z,0.5
2023-03-27T04:25:56.846Z,0.6
2023-03-27T04:27:04.500Z,1
2023-03-27T04:28:14.180Z,0.5
2023-03-27T04:29:22.822Z,1.3
2023-03-27T04:30:32.529Z,0.6
2023-03-27T04:31:41.214Z,0.6
2023-03-27T04:32:50.904Z,0.7
2023-03-27T04:34:00.540Z,0.6
2023-03-27T04:35:09.201Z,0.7
2023-03-27T04:36:16.868Z,0.6
2023-03-27T04:37:26.510Z,0.6
2023-03-27T04:38:35.179Z,0.5
2023-03-27T04:39:43.816Z,0.6
2023-03-27T04:40:52.504Z,0.5
2023-03-27T04:42:02.195Z,0.6
2023-03-27T04:43:11.853Z,0.5
2023-03-27T04:44:21.489Z,0.6
2023-03-27T04:45:29.199Z,0.8
2023-03-27T04:46:38.871Z,0.6
2023-03-27T04:47:47.520Z,0.8
2023-03-27T04:48:57.152Z,0.7
2023-03-27T04:50:05.823Z,0.6
2023-03-27T04:51:15.532Z,0.5
2023-03-27T04:52:25.185Z,0.7
2023-03-27T04:53:33.828Z,0.6
2023-03-27T04:54:42.604Z,0.8
2023-03-27T04:55:52.251Z,0.7
2023-03-27T04:57:00.903Z,0.7
2023-03-27T04:58:09.548Z,0.8
2023-03-27T04:59:18.197Z,0.9
2023-03-27T05:00:25.864Z,1.1
2023-03-27T05:01:35.536Z,0.6
2023-03-27T05:02:44.182Z,0.7
2023-03-27T05:03:52.841Z,0.9
2023-03-27T05:05:02.472Z,0.7
2023-03-27T05:06:11.147Z,0.9
2023-03-27T05:07:19.779Z,0.7
2023-03-27T05:08:28.486Z,0.6
2023-03-27T05:09:36.104Z,0.6
2023-03-27T05:10:46.033Z,0.8
2023-03-27T05:11:55.524Z,0.9
2023-03-27T05:13:05.178Z,0.8
2023-03-27T05:14:14.866Z,0.8
2023-03-27T05:15:23.492Z,0.8
2023-03-27T05:16:32.203Z,0.7
2023-03-27T05:17:40.904Z,0.6
2023-03-27T05:18:48.479Z,0.8
2023-03-27T05:19:58.170Z,0.8
2023-03-27T05:21:07.851Z,0.8
2023-03-27T05:22:17.526Z,0.8
2023-03-27T05:23:27.242Z,0.6
2023-03-27T05:24:35.900Z,0.8
2023-03-27T05:25:44.585Z,0.8
2023-03-27T05:26:55.339Z,0.8
2023-03-27T05:28:02.897Z,0.5
2023-03-27T05:29:12.574Z,0.7
2023-03-27T05:30:20.220Z,0.6
2023-03-27T05:31:27.974Z,0.6
2023-03-27T05:32:37.628Z,0.6
2023-03-27T05:33:46.234Z,0.6
2023-03-27T05:34:54.877Z,0.6
2023-03-27T05:36:03.591Z,0.6
2023-03-27T05:37:12.235Z,0.6
2023-03-27T05:38:21.910Z,0.5
2023-03-27T05:39:30.631Z,0.7
2023-03-27T05:40:40.324Z,0.7
2023-03-27T05:41:50.050Z,0.9
2023-03-27T05:42:58.782Z,0.5
2023-03-27T05:44:07.434Z,0.5
2023-03-27T05:45:16.038Z,0.5
2023-03-27T05:46:25.185Z,0.5
2023-03-27T05:47:34.816Z,0.6
2023-03-27T05:48:44.459Z,0.4
2023-03-27T05:49:53.117Z,0.5
2023-03-27T05:51:02.776Z,0.5
2023-03-27T05:52:11.473Z,0.5
2023-03-27T05:53:20.146Z,0.5
2023-03-27T05:54:30.772Z,0.5
2023-03-27T05:55:39.484Z,0.4
2023-03-27T05:56:49.286Z,0.6
2023-03-27T05:57:57.887Z,0.4
2023-03-27T05:59:06.583Z,1.3
2023-03-27T06:00:16.249Z,0.4
2023-03-27T06:01:25.959Z,0.5
2023-03-27T06:02:34.697Z,0.5
2023-03-27T06:03:43.446Z,0.4
2023-03-27T06:04:51.973Z,0.6
2023-03-27T06:06:01.677Z,0.4
2023-03-27T06:07:11.370Z,0.5
2023-03-27T06:08:21.026Z,0.8
2023-03-27T06:09:30.706Z,0.5
2023-03-27T06:10:40.368Z,0.5
2023-03-27T06:11:50.080Z,0.4
2023-03-27T06:12:59.745Z,0.6
2023-03-27T06:14:09.398Z,0.5
2023-03-27T06:15:19.111Z,0.6
2023-03-27T06:16:28.916Z,0.6
2023-03-27T06:17:37.577Z,0.5
2023-03-27T06:18:46.257Z,0.6
2023-03-27T06:19:55.984Z,0.8
2023-03-27T06:21:04.640Z,0.7
2023-03-27T06:22:14.315Z,1
2023-03-27T06:23:22.975Z,0.7
2023-03-27T06:24:30.620Z,1.2
2023-03-27T06:25:40.329Z,0.7
2023-03-27T06:26:48.998Z,0.7
2023-03-27T06:27:58.665Z,0.8
2023-03-27T06:29:08.216Z,0.5
2023-03-27T06:30:14.998Z,0.7
2023-03-27T06:31:24.728Z,1.3
2023-03-27T06:32:34.393Z,0.6
2023-03-27T06:33:43.017Z,0.9
2023-03-27T06:34:52.685Z,0.9
2023-03-27T06:36:01.374Z,1
2023-03-27T06:37:11.018Z,0.9
2023-03-27T06:38:19.684Z,0.9
2023-03-27T06:39:27.347Z,1
2023-03-27T06:40:36.995Z,0.8
2023-03-27T06:41:45.716Z,0.8
2023-03-27T06:42:55.556Z,1
2023-03-27T06:44:05.272Z,0.7
2023-03-27T06:45:13.977Z,0.6
2023-03-27T06:46:27.534Z,0.4
2023-03-27T06:47:36.424Z,0.3
2023-03-27T06:48:43.001Z,0.4
2023-03-27T06:49:52.831Z,0.3
2023-03-27T06:51:01.477Z,0.4
2023-03-27T06:52:10.155Z,0.3
2023-03-27T06:53:27.017Z,0.6
2023-03-27T06:54:29.557Z,0.4
2023-03-27T06:55:39.265Z,0.4
2023-03-27T06:56:47.944Z,0.3
2023-03-27T06:57:57.622Z,0.3
2023-03-27T06:59:07.299Z,0.2
2023-03-27T07:00:15.959Z,0.3
2023-03-27T07:01:24.609Z,0.3
2023-03-27T07:02:34.337Z,0.2
2023-03-27T07:03:43.003Z,0.3
2023-03-27T07:05:01.885Z,0.2
2023-03-27T07:06:03.415Z,0.3
2023-03-27T07:07:11.964Z,0.2
2023-03-27T07:08:24.644Z,0.2
2023-03-27T07:09:31.305Z,0.2
2023-03-27T07:10:38.964Z,0.2
2023-03-27T07:11:48.648Z,0.2
2023-03-27T07:12:58.358Z,0.3
2023-03-27T07:14:07.029Z,0.3
2023-03-27T07:15:16.680Z,0.3
2023-03-27T07:16:26.367Z,0.3
2023-03-27T07:17:47.883Z,0.4
2023-03-27T07:18:45.703Z,0.5
2023-03-27T07:19:55.326Z,0.5
2023-03-27T07:21:03.977Z,1
2023-03-27T07:22:12.620Z,0.3
2023-03-27T07:23:21.319Z,0.3
2023-03-27T07:24:29.946Z,0.4
2023-03-27T07:25:37.709Z,0.3
2023-03-27T07:26:47.399Z,0.2
2023-03-27T07:27:57.069Z,0.2
2023-03-27T07:29:04.742Z,0.4
2023-03-27T07:30:14.437Z,0.7
2023-03-27T07:31:32.981Z,0.3
2023-03-27T07:32:37.441Z,0.5
2023-03-27T07:33:44.509Z,0.3
2023-03-27T07:34:53.091Z,0.5
2023-03-27T07:36:02.771Z,0.4
2023-03-27T07:37:11.413Z,0.3
2023-03-27T07:38:19.120Z,0.7
2023-03-27T07:39:28.789Z,0.3
2023-03-27T07:40:40.714Z,0.3
2023-03-27T07:41:47.985Z,0.5
2023-03-27T07:42:57.687Z,0.6
2023-03-27T07:44:06.359Z,0.3
2023-03-27T07:45:16.008Z,0.5
2023-03-27T07:46:24.767Z,0.6
2023-03-27T07:47:34.544Z,0.3
2023-03-27T07:48:43.203Z,0.4
2023-03-27T07:49:51.873Z,0.2
2023-03-27T07:51:07.296Z,0.4
2023-03-27T07:52:12.907Z,0.2
2023-03-27T07:53:32.350Z,0.3
2023-03-27T07:54:33.481Z,0.2
2023-03-27T07:55:41.127Z,0.2
2023-03-27T07:56:48.942Z,0.2
2023-03-27T07:58:01.213Z,0.7
2023-03-27T07:59:07.120Z,0.4
2023-03-27T08:00:16.910Z,0.3
2023-03-27T08:01:26.585Z,0.2
2023-03-27T08:02:34.282Z,0.3
2023-03-27T08:03:44.013Z,0.4
2023-03-27T08:04:53.772Z,0.4
2023-03-27T08:06:03.427Z,0.3
2023-03-27T08:07:13.125Z,0.2
2023-03-27T08:08:22.807Z,0.3
2023-03-27T08:09:31.466Z,0.5
2023-03-27T08:10:41.119Z,0.3
2023-03-27T08:11:50.777Z,0.4
2023-03-27T08:13:00.429Z,0.4
2023-03-27T08:14:10.196Z,0.5
2023-03-27T08:15:17.843Z,0.4
2023-03-27T08:16:27.643Z,0.5
2023-03-27T08:17:36.298Z,0.6
2023-03-27T08:18:44.877Z,0.3
2023-03-27T08:19:54.583Z,0.4
2023-03-27T08:21:03.304Z,0.6
2023-03-27T08:22:11.936Z,0.5
2023-03-27T08:23:21.687Z,0.5
2023-03-27T08:24:31.361Z,0.4
2023-03-27T08:25:40.065Z,0.2
2023-03-27T08:26:49.876Z,0.3
2023-03-27T08:27:57.557Z,1.5
2023-03-27T08:29:07.253Z,0.3
2023-03-27T08:30:16.832Z,1
2023-03-27T08:31:23.727Z,0.4
2023-03-27T08:32:33.342Z,0.5
2023-03-27T08:33:43.022Z,0.3
2023-03-27T08:34:50.755Z,0.5
2023-03-27T08:35:58.679Z,0.3
2023-03-27T08:37:07.228Z,0.4
2023-03-27T08:38:25.947Z,0.3
2023-03-27T08:39:26.605Z,0.5
2023-03-27T08:40:34.292Z,0.8
2023-03-27T08:41:43.993Z,0.9
2023-03-27T08:42:52.745Z,1.1
2023-03-27T08:44:01.649Z,1.3
2023-03-27T08:45:11.405Z,0.8
2023-03-27T08:46:19.101Z,0.9
2023-03-27T08:47:28.782Z,0.9
2023-03-27T08:48:37.403Z,0.8
2023-03-27T08:49:46.072Z,1.1
2023-03-27T08:50:55.734Z,0.8
2023-03-27T08:52:04.405Z,1.2
2023-03-27T08:53:13.071Z,0.8
2023-03-27T08:54:21.792Z,0.8
2023-03-27T08:55:29.430Z,1.1
2023-03-27T08:56:39.124Z,0.8
2023-03-27T08:57:47.955Z,0.9
2023-03-27T08:58:56.620Z,1
2023-03-27T09:00:06.297Z,0.8
2023-03-27T09:01:16.028Z,1.1
2023-03-27T09:02:25.621Z,2.2
2023-03-27T09:03:34.344Z,0.8
2023-03-27T09:04:43.976Z,0.8
2023-03-27T09:05:53.628Z,0.9
2023-03-27T09:07:03.298Z,0.5
2023-03-27T09:08:11.943Z,0.3
2023-03-27T09:09:21.620Z,0.3
2023-03-27T09:10:29.466Z,1.9
2023-03-27T09:11:38.108Z,0.3
2023-03-27T09:12:47.756Z,0.3
2023-03-27T09:13:56.470Z,0.3
2023-03-27T09:15:06.200Z,0.8
2023-03-27T09:16:14.895Z,0.6
2023-03-27T09:17:22.512Z,0.5
2023-03-27T09:18:32.194Z,0.8
2023-03-27T09:19:40.910Z,0.4
2023-03-27T09:20:49.559Z,0.4
2023-03-27T09:21:58.274Z,0.5
2023-03-27T09:23:06.954Z,0.9
2023-03-27T09:24:16.615Z,0.4
2023-03-27T09:25:26.329Z,0.5
2023-03-27T09:26:32.999Z,0.4
2023-03-27T09:27:43.620Z,1.5
2023-03-27T09:28:53.270Z,0.4
2023-03-27T09:30:05.251Z,0.8
2023-03-27T09:31:13.685Z,0.3
2023-03-27T09:32:22.387Z,0.7
2023-03-27T09:33:32.082Z,0.4
2023-03-27T09:34:40.786Z,0.7
2023-03-27T09:35:49.482Z,1.8
2023-03-27T09:36:59.116Z,0.8
2023-03-27T09:38:09.796Z,1.1
2023-03-27T09:39:19.467Z,1.9
2023-03-27T09:40:27.158Z,0.5
2023-03-27T09:41:35.829Z,2.4
2023-03-27T09:42:45.542Z,1
2023-03-27T09:43:55.264Z,1
2023-03-27T09:45:05.602Z,0.8
2023-03-27T09:46:15.247Z,0.3
2023-03-27T09:47:24.878Z,0.7
2023-03-27T09:48:33.523Z,0.8
2023-03-27T09:49:42.223Z,1.2
2023-03-27T09:50:50.915Z,0.5
2023-03-27T09:52:00.587Z,0.5
2023-03-27T09:53:10.255Z,0.8
2023-03-27T09:54:18.995Z,1.1
2023-03-27T09:55:28.652Z,2.1
2023-03-27T09:56:37.375Z,1.6
2023-03-27T09:57:47.027Z,0.4
2023-03-27T09:58:56.658Z,0.9
2023-03-27T10:00:04.674Z,0.5
2023-03-27T10:01:13.463Z,0.6
2023-03-27T10:02:21.993Z,1.5
2023-03-27T10:03:31.668Z,0.9
2023-03-27T10:04:41.348Z,0.9
2023-03-27T10:05:50.008Z,0.6
2023-03-27T10:06:58.657Z,0.8
2023-03-27T10:08:07.330Z,1.4
2023-03-27T10:09:15.994Z,1.1
2023-03-27T10:10:24.670Z,0.9
2023-03-27T10:11:34.410Z,2.3
2023-03-27T10:12:44.137Z,1.1
2023-03-27T10:13:52.854Z,0.8
2023-03-27T10:15:02.507Z,1.1
2023-03-27T10:16:11.182Z,1.2
2023-03-27T10:17:20.809Z,1
2023-03-27T10:18:29.523Z,1.5
2023-03-27T10:19:38.184Z,1.2
2023-03-27T10:20:47.944Z,1.4
2023-03-27T10:21:56.586Z,1.1
2023-03-27T10:23:05.280Z,1.2
2023-03-27T10:24:14.909Z,0.9
2023-03-27T10:25:22.589Z,0.6
2023-03-27T10:26:32.299Z,1.3
2023-03-27T10:27:40.941Z,6.6
2023-03-27T10:28:48.585Z,1.4
2023-03-27T10:29:57.316Z,0.8
2023-03-27T10:31:06.637Z,1.3
2023-03-27T10:32:16.301Z,1.9
2023-03-27T10:33:25.966Z,2.6
2023-03-27T10:34:35.619Z,2.7
2023-03-27T10:35:45.353Z,2.6
2023-03-27T10:36:55.001Z,3.3
2023-03-27T10:38:02.686Z,3
2023-03-27T10:39:12.405Z,2.1
2023-03-27T10:40:22.105Z,2.2
2023-03-27T10:41:30.809Z,2
2023-03-27T10:42:40.474Z,2.5
2023-03-27T10:43:49.135Z,2.1
2023-03-27T10:44:58.801Z,2.7
2023-03-27T10:46:06.551Z,2.6
2023-03-27T10:47:15.180Z,2.5
2023-03-27T10:48:24.829Z,2.8
2023-03-27T10:49:34.603Z,2.1
2023-03-27T10:50:43.331Z,2.6
2023-03-27T10:51:52.001Z,2.2
2023-03-27T10:53:00.660Z,2.1
2023-03-27T10:54:10.354Z,2.6
2023-03-27T10:55:18.956Z,2.7
2023-03-27T10:56:27.647Z,2.4
2023-03-27T10:57:37.369Z,2.5
2023-03-27T10:58:47.069Z,1.9
2023-03-27T10:59:57.790Z,2.3
2023-03-27T11:01:07.516Z,2.2
2023-03-27T11:02:17.191Z,1.6
2023-03-27T11:03:26.859Z,2
2023-03-27T11:04:35.499Z,1.9
2023-03-27T11:05:45.272Z,1.9
2023-03-27T11:06:54.970Z,1.5
2023-03-27T11:08:03.669Z,1.7
2023-03-27T11:09:12.301Z,1.6
2023-03-27T11:10:20.963Z,1.1
2023-03-27T11:11:28.638Z,1.3
2023-03-27T11:12:38.301Z,0.8
2023-03-27T11:13:47.973Z,0.9
2023-03-27T11:14:56.638Z,1.2
2023-03-27T11:16:06.398Z,0.7
2023-03-27T11:17:15.070Z,2
2023-03-27T11:18:22.788Z,1.9
2023-03-27T11:19:32.474Z,1.7
2023-03-27T11:20:40.131Z,1.6
2023-03-27T11:21:49.825Z,2
2023-03-27T11:22:58.484Z,1.8
2023-03-27T11:24:06.176Z,3.4
2023-03-27T11:25:14.857Z,1.8
2023-03-27T11:26:24.515Z,1.8
2023-03-27T11:27:34.171Z,2
2023-03-27T11:28:43.847Z,1.6
2023-03-27T11:29:51.518Z,1.2
2023-03-27T11:31:11.604Z,1.7
2023-03-27T11:32:10.858Z,1.3
2023-03-27T11:33:19.530Z,1.6
2023-03-27T11:34:28.671Z,1.8
2023-03-27T11:35:37.855Z,1.6
2023-03-27T11:36:46.527Z,1.8
2023-03-27T11:37:56.304Z,1.1
2023-03-27T11:39:04.946Z,1.5
2023-03-27T11:40:14.614Z,0.7
2023-03-27T11:41:23.344Z,1.2
2023-03-27T11:42:31.115Z,1.3
2023-03-27T11:43:40.714Z,0.6
2023-03-27T11:44:50.374Z,1.2
2023-03-27T11:45:59.032Z,0.9
2023-03-27T11:47:07.736Z,1
2023-03-27T11:48:17.430Z,1.6
2023-03-27T11:49:27.075Z,1.4
2023-03-27T11:50:35.745Z,1.2
2023-03-27T11:51:43.406Z,0.9
2023-03-27T11:52:53.077Z,0.8
2023-03-27T11:54:01.746Z,1
2023-03-27T11:55:10.397Z,1.6
2023-03-27T11:56:19.066Z,0.9
2023-03-27T11:57:27.728Z,0.9
2023-03-27T11:58:37.432Z,1.6
2023-03-27T11:59:47.089Z,1.2
2023-03-27T12:00:54.870Z,0.8
2023-03-27T12:02:04.480Z,1
2023-03-27T12:03:14.171Z,1.3
2023-03-27T12:04:22.840Z,2.8
2023-03-27T12:05:32.471Z,1
2023-03-27T12:06:40.258Z,0.7
2023-03-27T12:07:49.879Z,1.5
2023-03-27T12:08:59.538Z,1.7
2023-03-27T12:10:09.245Z,1
2023-03-27T12:11:18.944Z,1.7
2023-03-27T12:12:28.615Z,1.5
2023-03-27T12:13:41.508Z,1.9
2023-03-27T12:14:48.865Z,1.5
2023-03-27T12:15:58.544Z,0.6
2023-03-27T12:17:07.232Z,0.6
2023-03-27T12:18:16.889Z,0.6
2023-03-27T12:19:28.855Z,2.3
2023-03-27T12:20:38.307Z,1.5
2023-03-27T12:21:46.879Z,0.6
2023-03-27T12:22:55.556Z,0.7
2023-03-27T12:24:05.233Z,0.9
2023-03-27T12:25:14.309Z,0.7
2023-03-27T12:26:21.594Z,1
2023-03-27T12:27:31.273Z,0.6
2023-03-27T12:28:41.100Z,0.7
2023-03-27T12:29:48.605Z,0.9
2023-03-27T12:30:57.367Z,1.2
2023-03-27T12:32:05.993Z,2.6
2023-03-27T12:33:15.732Z,0.6
2023-03-27T12:34:25.298Z,1.4
2023-03-27T12:35:34.041Z,0.8
2023-03-27T12:36:43.643Z,0.6
2023-03-27T12:37:53.376Z,0.5
2023-03-27T12:39:03.050Z,0.8
2023-03-27T12:40:11.714Z,0.5
2023-03-27T12:41:20.415Z,0.6
2023-03-27T12:42:30.161Z,0.8
2023-03-27T12:43:40.809Z,0.9
2023-03-27T12:44:48.455Z,1.1
2023-03-27T12:45:58.138Z,0.5
2023-03-27T12:47:09.117Z,0.9
2023-03-27T12:48:15.518Z,0.6
2023-03-27T12:49:31.635Z,2.7
2023-03-27T12:50:34.868Z,1.2
2023-03-27T12:51:44.572Z,1
2023-03-27T12:52:53.292Z,1
2023-03-27T12:54:01.017Z,0.6
2023-03-27T12:55:10.716Z,1.1
2023-03-27T12:56:19.338Z,0.5
2023-03-27T12:57:28.094Z,1
2023-03-27T12:58:37.765Z,0.4
2023-03-27T12:59:47.379Z,0.6
2023-03-27T13:00:57.170Z,0.7
2023-03-27T13:02:05.789Z,1.2
2023-03-27T13:03:14.552Z,1.2
2023-03-27T13:04:24.222Z,1.1
2023-03-27T13:05:32.937Z,0.8
2023-03-27T13:06:42.628Z,0.8
2023-03-27T13:07:53.470Z,1.1
2023-03-27T13:09:01.094Z,1.4
2023-03-27T13:10:09.791Z,1
2023-03-27T13:11:19.482Z,1.1
2023-03-27T13:12:28.160Z,1.5
2023-03-27T13:13:37.927Z,1.5
2023-03-27T13:14:47.578Z,0.8
2023-03-27T13:15:56.588Z,0.7
2023-03-27T13:17:04.937Z,0.7
2023-03-27T13:18:13.613Z,0.9
2023-03-27T13:19:23.311Z,0.7
2023-03-27T13:20:31.960Z,1.1
2023-03-27T13:21:40.611Z,1.6
2023-03-27T13:22:50.301Z,0.6
2023-03-27T13:23:58.949Z,0.6
2023-03-27T13:25:07.620Z,3.5
2023-03-27T13:26:17.366Z,0.8
2023-03-27T13:27:26.002Z,1.6
2023-03-27T13:28:33.682Z,0.9
2023-03-27T13:29:42.360Z,0.8
2023-03-27T13:30:51.067Z,1
2023-03-27T13:32:00.729Z,1.1
2023-03-27T13:33:10.489Z,1.1
2023-03-27T13:34:18.196Z,1
2023-03-27T13:35:27.854Z,1.2
2023-03-27T13:36:36.564Z,1.5
2023-03-27T13:37:46.309Z,1.3
2023-03-27T13:38:54.999Z,1.3
2023-03-27T13:40:03.638Z,1.4
2023-03-27T13:41:13.307Z,1.3
2023-03-27T13:42:21.980Z,2.5
2023-03-27T13:43:31.612Z,1.5
2023-03-27T13:44:41.372Z,1.5
2023-03-27T13:45:51.057Z,1.1
2023-03-27T13:47:00.753Z,0.8
2023-03-27T13:48:09.372Z,1.1
2023-03-27T13:49:19.054Z,1.6
2023-03-27T13:50:28.745Z,0.8
2023-03-27T13:51:37.438Z,5.9
2023-03-27T13:52:46.086Z,0.8
2023-03-27T13:53:55.829Z,0.8
2023-03-27T13:55:05.514Z,1
2023-03-27T13:56:15.247Z,0.8
2023-03-27T13:57:23.940Z,1
2023-03-27T13:58:32.582Z,0.6
2023-03-27T13:59:42.693Z,1.2
2023-03-27T14:00:51.382Z,0.8
2023-03-27T14:02:01.144Z,0.8
2023-03-27T14:03:10.848Z,0.6
2023-03-27T14:04:19.443Z,0.7
2023-03-27T14:05:27.114Z,0.8
2023-03-27T14:06:36.798Z,1
2023-03-27T14:07:45.436Z,2.7
2023-03-27T14:08:53.078Z,1.3
2023-03-27T14:10:02.849Z,0.9
2023-03-27T14:11:12.478Z,0.7
2023-03-27T14:12:21.168Z,0.4
2023-03-27T14:13:31.066Z,0.5
2023-03-27T14:14:39.713Z,0.6
2023-03-27T14:15:49.407Z,0.6
2023-03-27T14:16:58.076Z,0.7
2023-03-27T14:18:06.801Z,1.5
2023-03-27T14:19:16.461Z,0.7
2023-03-27T14:20:25.132Z,0.5
2023-03-27T14:21:38.687Z,0.4
2023-03-27T14:22:45.448Z,0.4
2023-03-27T14:23:54.110Z,1
2023-03-27T14:25:03.838Z,0.4
2023-03-27T14:26:12.500Z,0.6
2023-03-27T14:27:22.164Z,0.4
2023-03-27T14:28:31.886Z,0.7
2023-03-27T14:29:40.598Z,0.4
2023-03-27T14:30:49.248Z,0.7
2023-03-27T14:31:59.972Z,0.4
2023-03-27T14:33:08.613Z,0.7
2023-03-27T14:34:18.278Z,0.5
2023-03-27T14:35:28.000Z,0.4
2023-03-27T14:36:36.894Z,0.9
2023-03-27T14:37:46.290Z,1.1
2023-03-27T14:38:55.946Z,1.4
2023-03-27T14:40:05.639Z,1.7
2023-03-27T14:41:14.305Z,1.2
2023-03-27T14:42:25.048Z,0.6
2023-03-27T14:43:34.624Z,0.5
2023-03-27T14:44:43.334Z,0.7
2023-03-27T14:45:53.029Z,0.9
2023-03-27T14:47:02.711Z,0.7
2023-03-27T14:48:11.370Z,0.8
2023-03-27T14:49:20.451Z,1.9
2023-03-27T14:50:30.690Z,0.6
2023-03-27T14:51:39.346Z,0.8
2023-03-27T14:52:49.000Z,1.2
2023-03-27T14:53:58.659Z,1.7
2023-03-27T14:55:07.362Z,2.1
2023-03-27T14:56:17.020Z,2.8
2023-03-27T14:57:26.693Z,2.1
2023-03-27T14:58:35.356Z,2.8
2023-03-27T14:59:44.001Z,2.6
2023-03-27T15:00:52.891Z,2.6
2023-03-27T15:02:02.558Z,2.4
2023-03-27T15:03:11.210Z,2.8
2023-03-27T15:04:19.862Z,3.1
2023-03-27T15:05:29.526Z,2.1
2023-03-27T15:06:38.207Z,2
2023-03-27T15:07:47.876Z,2.1
2023-03-27T15:08:57.624Z,1.6
2023-03-27T15:10:07.386Z,1.8
2023-03-27T15:11:17.062Z,1.7
2023-03-27T15:12:27.709Z,2.5
2023-03-27T15:13:35.370Z,2.4
2023-03-27T15:14:45.064Z,3
2023-03-27T15:15:54.806Z,3.5
2023-03-27T15:17:03.479Z,2.9
2023-03-27T15:18:13.082Z,2.7
2023-03-27T15:19:22.746Z,2.6
2023-03-27T15:20:32.441Z,2
2023-03-27T15:21:41.080Z,2
2023-03-27T15:22:49.750Z,2.3
2023-03-27T15:23:59.449Z,1.9
2023-03-27T15:25:08.086Z,2.8
2023-03-27T15:26:16.816Z,2
2023-03-27T15:27:26.469Z,2.5
2023-03-27T15:28:35.123Z,2.7
2023-03-27T15:29:44.807Z,2
2023-03-27T15:30:53.558Z,1.8
2023-03-27T15:32:03.194Z,1.7
2023-03-27T15:33:11.907Z,2.1
2023-03-27T15:34:21.504Z,2.2
2023-03-27T15:35:30.236Z,3.3
2023-03-27T15:36:38.896Z,3.2
2023-03-27T15:37:47.571Z,2.5
2023-03-27T15:38:57.245Z,2.8
2023-03-27T15:40:05.909Z,2.8
2023-03-27T15:41:15.763Z,3.5
2023-03-27T15:42:25.764Z,3.5
2023-03-27T15:43:33.534Z,3.4
2023-03-27T15:44:42.241Z,2.4
2023-03-27T15:45:51.142Z,2.7
2023-03-27T15:47:00.899Z,2.4
2023-03-27T15:48:10.584Z,2.7
2023-03-27T15:49:19.385Z,3.1
2023-03-27T15:50:27.088Z,2.6
2023-03-27T15:51:36.896Z,2.8
2023-03-27T15:52:46.562Z,2.7
2023-03-27T15:53:55.313Z,3.3
2023-03-27T15:55:04.963Z,4.7
2023-03-27T15:56:12.711Z,3.1